createdAt,value
2022-11-22T00:00:25.730Z,122.47
2022-11-22T00:05:30.929Z,98.10
2022-11-22T00:08:03.905Z,92.30
2022-11-22T00:10:36.698Z,98.05
2022-11-22T00:13:09.189Z,97.47
2022-11-22T00:15:41.728Z,88.32
2022-11-22T00:18:14.246Z,100.38
2022-11-22T00:20:47.036Z,87.53
2022-11-22T00:23:19.699Z,84.63
2022-11-22T00:25:52.307Z,82.30
2022-11-22T00:28:24.855Z,84.00
2022-11-22T00:30:57.467Z,81.95
2022-11-22T00:33:34.816Z,84.68
2022-11-22T00:36:07.518Z,91.32
2022-11-22T00:38:40.094Z,76.32
2022-11-22T00:41:12.638Z,84.63
2022-11-22T00:43:45.126Z,85.05
2022-11-22T00:46:17.642Z,80.55
2022-11-22T00:48:50.766Z,81.85
2022-11-22T00:51:23.451Z,69.60
2022-11-22T00:53:56.037Z,74.28
2022-11-22T00:56:28.706Z,67.05
2022-11-22T00:59:01.625Z,65.18
2022-11-22T01:01:34.260Z,65.10
2022-11-22T01:04:07.065Z,68.70
2022-11-22T01:06:39.667Z,67.95
2022-11-22T01:09:19.437Z,67.53
2022-11-22T01:11:52.323Z,57.38
2022-11-22T01:14:24.917Z,64.18
2022-11-22T01:16:57.491Z,68.30
2022-11-22T01:19:30.642Z,65.90
2022-11-22T01:22:03.294Z,66.47
2022-11-22T01:24:35.829Z,68.20
2022-11-22T01:27:08.351Z,65.07
2022-11-22T01:29:40.958Z,60.15
2022-11-22T01:32:13.560Z,61.05
2022-11-22T01:34:46.083Z,58.70
2022-11-22T01:37:18.694Z,54.35
2022-11-22T01:39:51.205Z,59.90
2022-11-22T01:42:24.046Z,60.15
2022-11-22T01:45:16.602Z,55.92
2022-11-22T01:47:49.191Z,55.65
2022-11-22T01:50:21.955Z,56.70
2022-11-22T01:52:57.817Z,59.88
2022-11-22T01:55:30.934Z,62.05
2022-11-22T01:58:03.781Z,53.33
2022-11-22T02:00:39.118Z,58.50
2022-11-22T02:03:14.483Z,57.47
2022-11-22T02:08:28.842Z,50.28
2022-11-22T02:11:03.855Z,51.05
2022-11-22T02:13:40.117Z,56.47
2022-11-22T02:16:12.947Z,56.03
2022-11-22T02:18:45.449Z,54.65
2022-11-22T02:21:17.997Z,61.47
2022-11-22T02:24:05.277Z,59.13
2022-11-22T02:26:37.870Z,61.80
2022-11-22T02:29:10.491Z,61.83
2022-11-22T02:31:46.204Z,62.13
2022-11-22T02:34:18.894Z,60.35
2022-11-22T02:36:55.090Z,56.85
2022-11-22T02:39:31.874Z,65.85
2022-11-22T02:42:04.709Z,56.95
2022-11-22T02:44:37.853Z,62.67
2022-11-22T02:47:10.334Z,58.78
2022-11-22T02:49:43.229Z,58.58
2022-11-22T02:52:18.643Z,60.13
2022-11-22T02:54:51.325Z,59.92
2022-11-22T02:57:24.266Z,68.63
2022-11-22T02:59:56.908Z,52.40
2022-11-22T03:02:29.427Z,53.75
2022-11-22T03:05:01.992Z,58.92
2022-11-22T03:07:34.562Z,54.25
2022-11-22T03:10:07.415Z,54.03
2022-11-22T03:12:40.494Z,50.35
2022-11-22T03:15:13.141Z,49.88
2022-11-22T03:17:45.662Z,48.45
2022-11-22T03:20:18.420Z,50.33
2022-11-22T03:22:50.886Z,46.60
2022-11-22T03:25:23.510Z,42.42
2022-11-22T03:27:56.156Z,44.65
2022-11-22T03:30:28.695Z,44.80
2022-11-22T03:33:01.168Z,46.83
2022-11-22T03:35:33.786Z,37.83
2022-11-22T03:38:07.251Z,42.17
2022-11-22T03:40:39.906Z,39.50
2022-11-22T03:43:12.446Z,37.55
2022-11-22T03:45:46.646Z,38.00
2022-11-22T03:48:19.709Z,26.60
2022-11-22T03:50:52.375Z,40.25
2022-11-22T03:53:24.909Z,32.95
2022-11-22T03:55:57.469Z,34.10
2022-11-22T03:58:30.262Z,34.05
2022-11-22T04:01:02.910Z,34.33
2022-11-22T04:03:35.472Z,33.97
2022-11-22T04:06:08.087Z,28.05
2022-11-22T04:08:40.889Z,34.63
2022-11-22T04:11:13.545Z,33.38
2022-11-22T04:14:01.215Z,35.70
2022-11-22T04:16:34.001Z,32.28
2022-11-22T04:19:06.610Z,31.17
2022-11-22T04:21:39.330Z,28.92
2022-11-22T04:24:28.248Z,29.13
2022-11-22T04:27:00.900Z,29.65
2022-11-22T04:29:33.817Z,33.00
2022-11-22T04:32:21.850Z,36.88
2022-11-22T04:34:54.568Z,35.33
2022-11-22T04:37:27.280Z,35.40
2022-11-22T04:39:59.869Z,34.25
2022-11-22T04:42:48.454Z,35.28
2022-11-22T04:45:21.018Z,31.13
2022-11-22T04:48:01.124Z,34.50
2022-11-22T04:50:49.267Z,33.88
2022-11-22T04:53:21.869Z,39.10
2022-11-22T04:55:54.843Z,38.58
2022-11-22T04:58:27.469Z,37.42
2022-11-22T05:01:00.074Z,37.85
2022-11-22T05:03:32.888Z,33.53
2022-11-22T05:06:06.045Z,28.73
2022-11-22T05:08:38.829Z,32.88
2022-11-22T05:11:12.180Z,32.58
2022-11-22T05:13:45.052Z,26.23
2022-11-22T05:16:17.485Z,24.05
2022-11-22T05:18:59.647Z,25.85
2022-11-22T05:21:35.923Z,26.25
2022-11-22T05:24:08.912Z,29.48
2022-11-22T05:26:42.368Z,28.90
2022-11-22T05:29:14.915Z,26.30
2022-11-22T05:31:51.376Z,31.40
2022-11-22T05:34:24.473Z,29.15
2022-11-22T05:36:57.042Z,27.63
2022-11-22T05:39:29.923Z,29.50
2022-11-22T05:42:02.515Z,27.90
2022-11-22T05:44:35.057Z,27.65
2022-11-22T05:47:08.002Z,31.42
2022-11-22T05:49:40.997Z,29.67
2022-11-22T05:52:13.630Z,26.35
2022-11-22T05:54:46.393Z,35.70
2022-11-22T05:57:19.252Z,35.05
2022-11-22T05:59:51.972Z,29.23
2022-11-22T06:02:24.787Z,31.10
2022-11-22T06:04:57.485Z,28.95
2022-11-22T06:07:30.613Z,32.20
2022-11-22T06:10:03.457Z,29.13
2022-11-22T06:12:36.166Z,31.85
2022-11-22T06:15:09.753Z,25.08
2022-11-22T06:17:42.987Z,19.33
2022-11-22T06:20:16.133Z,25.35
2022-11-22T06:22:48.624Z,19.20
2022-11-22T06:25:21.517Z,22.42
2022-11-22T06:27:53.974Z,16.25
2022-11-22T06:30:26.570Z,14.45
2022-11-22T06:32:59.064Z,13.52
2022-11-22T06:35:31.850Z,11.15
2022-11-22T06:38:04.419Z,10.85
2022-11-22T06:40:37.128Z,9.98
2022-11-22T06:43:09.766Z,10.15
2022-11-22T06:45:42.458Z,10.40
2022-11-22T06:48:15.110Z,10.40
2022-11-22T06:50:47.941Z,12.55
2022-11-22T06:53:45.210Z,10.07
2022-11-22T06:56:16.822Z,9.60
2022-11-22T06:58:51.361Z,9.77
2022-11-22T07:01:27.220Z,10.88
2022-11-22T07:04:00.842Z,11.13
2022-11-22T07:06:36.252Z,12.93
2022-11-22T07:09:11.256Z,11.90
2022-11-22T07:11:44.225Z,13.48
2022-11-22T07:14:17.038Z,11.32
2022-11-22T07:16:49.689Z,12.93
2022-11-22T07:19:22.284Z,14.23
2022-11-22T07:21:55.546Z,15.20
2022-11-22T07:24:29.180Z,15.95
2022-11-22T07:27:02.708Z,14.15
2022-11-22T07:29:35.243Z,18.45
2022-11-22T07:32:07.946Z,17.05
2022-11-22T07:34:40.851Z,21.13
2022-11-22T07:37:13.687Z,18.08
2022-11-22T07:39:46.230Z,20.35
2022-11-22T07:42:23.647Z,16.20
2022-11-22T07:44:59.609Z,15.50
2022-11-22T07:47:32.895Z,15.93
2022-11-22T07:50:06.351Z,13.45
2022-11-22T07:52:38.995Z,14.73
2022-11-22T07:55:14.244Z,15.10
2022-11-22T07:57:47.316Z,17.92
2022-11-22T08:00:20.957Z,14.73
2022-11-22T08:02:53.899Z,17.55
2022-11-22T08:05:27.592Z,16.55
2022-11-22T08:08:00.857Z,16.17
2022-11-22T08:10:33.450Z,18.30
2022-11-22T08:13:06.500Z,17.55
2022-11-22T08:15:39.199Z,17.10
2022-11-22T08:18:11.942Z,14.95
2022-11-22T08:20:44.759Z,14.85
2022-11-22T08:23:17.488Z,14.30
2022-11-22T08:25:50.519Z,14.85
2022-11-22T08:28:23.467Z,11.32
2022-11-22T08:31:07.466Z,14.98
2022-11-22T08:33:40.901Z,12.80
2022-11-22T08:36:13.649Z,15.02
2022-11-22T08:38:47.004Z,12.05
2022-11-22T08:41:19.715Z,13.63
2022-11-22T08:43:53.191Z,13.90
2022-11-22T08:46:25.722Z,12.10
2022-11-22T08:48:58.601Z,20.50
2022-11-22T08:51:31.673Z,11.60
2022-11-22T08:54:04.880Z,9.80
2022-11-22T08:56:37.651Z,6.82
2022-11-22T08:59:10.454Z,6.57
2022-11-22T09:01:43.216Z,12.98
2022-11-22T09:04:16.630Z,6.22
2022-11-22T09:09:45.757Z,7.63
2022-11-22T09:12:18.680Z,8.00
2022-11-22T09:14:51.647Z,7.50
2022-11-22T09:17:24.176Z,7.43
2022-11-22T09:19:56.933Z,7.55
2022-11-22T09:22:29.642Z,7.25
2022-11-22T09:25:04.976Z,6.50
2022-11-22T09:27:40.051Z,7.60
2022-11-22T09:30:13.251Z,7.35
2022-11-22T09:32:45.935Z,6.15
2022-11-22T09:35:20.435Z,6.57
2022-11-22T09:37:53.038Z,6.85
2022-11-22T09:40:25.872Z,4.93
2022-11-22T09:43:01.695Z,4.65
2022-11-22T09:45:51.334Z,5.53
2022-11-22T09:48:45.454Z,5.10
2022-11-22T09:51:23.977Z,4.72
2022-11-22T09:54:07.828Z,3.60
2022-11-22T09:56:42.256Z,5.13
2022-11-22T09:59:23.399Z,3.88
2022-11-22T10:01:56.657Z,5.40
2022-11-22T10:04:38.982Z,4.50
2022-11-22T10:07:22.609Z,3.03
2022-11-22T10:10:11.841Z,4.32
2022-11-22T10:12:51.178Z,4.00
2022-11-22T10:15:43.256Z,8.27
2022-11-22T10:18:23.412Z,3.10
2022-11-22T10:20:56.103Z,5.55
2022-11-22T10:23:31.919Z,3.30
2022-11-22T10:26:32.923Z,3.97
2022-11-22T10:29:31.210Z,6.07
2022-11-22T10:32:27.827Z,2.47
2022-11-22T10:35:14.612Z,4.43
2022-11-22T10:37:55.600Z,3.65
2022-11-22T10:40:54.614Z,2.67
2022-11-22T10:43:34.557Z,6.00
2022-11-22T10:46:37.188Z,13.35
2022-11-22T10:49:25.539Z,2.40
2022-11-22T10:52:17.042Z,2.88
2022-11-22T10:54:59.233Z,2.30
2022-11-22T10:57:50.993Z,4.55
2022-11-22T11:00:25.788Z,2.25
2022-11-22T11:03:23.622Z,3.20
2022-11-22T11:09:54.834Z,1.23
2022-11-22T11:11:56.475Z,2.38
2022-11-22T11:14:48.746Z,6.32
2022-11-22T11:17:30.067Z,3.55
2022-11-22T11:20:14.857Z,2.30
2022-11-22T11:25:45.453Z,2.25
2022-11-22T11:28:24.439Z,1.65
2022-11-22T11:31:03.190Z,4.50
2022-11-22T11:33:38.917Z,2.00
2022-11-22T11:36:15.890Z,2.28
2022-11-22T11:38:53.068Z,4.75
2022-11-22T11:41:37.333Z,5.07
2022-11-22T11:44:34.954Z,2.20
2022-11-22T11:47:21.800Z,3.22
2022-11-22T11:49:56.088Z,3.25
2022-11-22T11:52:32.939Z,2.75
2022-11-22T11:55:18.651Z,3.63
2022-11-22T11:57:53.090Z,2.58
2022-11-22T12:00:28.653Z,7.50
2022-11-22T12:03:10.839Z,4.13
2022-11-22T12:05:43.616Z,3.00
2022-11-22T12:08:32.515Z,23.52
2022-11-22T12:11:24.807Z,2.75
2022-11-22T12:14:20.119Z,3.20
2022-11-22T12:17:02.125Z,3.13
2022-11-22T12:20:08.206Z,3.63
2022-11-22T12:25:40.662Z,2.90
2022-11-22T12:28:20.554Z,2.42
2022-11-22T12:31:00.608Z,12.15
2022-11-22T12:33:40.301Z,6.15
2022-11-22T12:36:27.085Z,12.68
2022-11-22T12:39:06.502Z,5.80
2022-11-22T12:41:41.982Z,2.40
2022-11-22T12:44:19.931Z,3.40
2022-11-22T12:46:58.743Z,2.20
2022-11-22T12:49:36.019Z,2.03
2022-11-22T12:52:32.325Z,3.28
2022-11-22T12:55:12.775Z,3.70
2022-11-22T12:57:55.411Z,3.83
2022-11-22T13:00:32.518Z,3.10
2022-11-22T13:03:15.009Z,3.63
2022-11-22T13:05:54.438Z,3.10
2022-11-22T13:08:31.838Z,4.57
2022-11-22T13:11:26.660Z,4.10
2022-11-22T13:14:09.256Z,3.10
2022-11-22T13:16:42.604Z,3.58
2022-11-22T13:19:19.043Z,3.20
2022-11-22T13:22:09.212Z,4.50
2022-11-22T13:25:07.681Z,3.65
2022-11-22T13:27:46.597Z,4.03
2022-11-22T13:30:22.464Z,3.40
2022-11-22T13:32:58.553Z,4.13
2022-11-22T13:35:37.976Z,6.18
2022-11-22T13:38:18.324Z,5.45
2022-11-22T13:40:52.308Z,3.53
2022-11-22T13:43:49.794Z,4.97
2022-11-22T13:46:54.752Z,3.53
2022-11-22T13:49:48.551Z,3.72
2022-11-22T13:52:23.142Z,5.20
2022-11-22T13:54:57.711Z,3.88
2022-11-22T13:57:36.448Z,3.88
2022-11-22T14:00:14.190Z,4.25
2022-11-22T14:02:52.193Z,3.55
2022-11-22T14:05:31.065Z,4.10
2022-11-22T14:08:06.772Z,4.38
2022-11-22T14:10:55.498Z,5.47
2022-11-22T14:13:53.760Z,4.05
2022-11-22T14:16:34.718Z,4.57
2022-11-22T14:19:28.599Z,3.92
2022-11-22T14:22:12.498Z,4.43
2022-11-22T14:24:50.916Z,8.10
2022-11-22T14:27:33.892Z,5.30
2022-11-22T14:30:37.835Z,4.10
2022-11-22T14:33:18.076Z,4.40
2022-11-22T14:36:07.677Z,3.30
2022-11-22T14:38:41.937Z,4.00
2022-11-22T14:41:31.301Z,5.38
2022-11-22T14:44:26.524Z,3.63
2022-11-22T14:47:12.466Z,4.65
2022-11-22T14:49:48.993Z,4.32
2022-11-22T14:52:28.771Z,3.38
2022-11-22T14:55:06.369Z,3.67
2022-11-22T14:57:39.383Z,3.08
2022-11-22T15:00:36.908Z,4.10
2022-11-22T15:03:42.872Z,4.35
2022-11-22T15:09:48.991Z,3.78
2022-11-22T15:12:43.070Z,27.13
2022-11-22T15:57:36.642Z,4.50
2022-11-22T16:00:19.196Z,3.13
2022-11-22T16:02:57.445Z,3.42
2022-11-22T16:06:06.350Z,2.97
2022-11-22T16:08:32.808Z,4.60
2022-11-22T16:11:06.093Z,8.93
2022-11-22T16:13:41.216Z,8.38
2022-11-22T16:16:15.043Z,13.48
2022-11-22T16:18:48.720Z,10.55
2022-11-22T16:21:25.466Z,11.25
2022-11-22T16:24:18.884Z,6.00
2022-11-22T16:26:56.795Z,4.22
2022-11-22T16:29:33.418Z,3.55
2022-11-22T16:32:13.355Z,4.00
2022-11-22T16:34:51.617Z,4.85
2022-11-22T16:37:37.821Z,7.53
2022-11-22T16:40:14.880Z,4.00
2022-11-22T16:42:48.318Z,5.70
2022-11-22T16:45:23.805Z,5.88
2022-11-22T16:48:16.682Z,4.15
2022-11-22T16:50:58.223Z,4.28
2022-11-22T16:53:40.419Z,2.90
2022-11-22T16:56:24.295Z,3.70
2022-11-22T16:58:58.387Z,3.75
2022-11-22T17:01:34.822Z,4.75
2022-11-22T17:04:10.609Z,7.57
2022-11-22T17:06:47.400Z,6.22
2022-11-22T17:09:21.112Z,6.78
2022-11-22T17:11:55.870Z,3.90
2022-11-22T17:14:30.677Z,4.55
2022-11-22T17:17:04.711Z,4.15
2022-11-22T17:19:52.653Z,3.45
2022-11-22T17:22:27.889Z,4.55
2022-11-22T17:25:00.918Z,6.20
2022-11-22T17:27:34.157Z,4.88
2022-11-22T17:30:08.897Z,4.18
2022-11-22T17:32:41.417Z,4.38
2022-11-22T17:35:14.249Z,4.15
2022-11-22T17:37:47.847Z,4.38
2022-11-22T17:40:20.800Z,3.10
2022-11-22T17:42:55.838Z,3.47
2022-11-22T17:45:29.918Z,5.13
2022-11-22T17:48:02.483Z,3.95
2022-11-22T17:50:35.374Z,3.83
2022-11-22T17:53:08.025Z,5.25
2022-11-22T17:56:09.006Z,5.35
2022-11-22T17:58:34.804Z,5.93
2022-11-22T18:01:14.210Z,4.80
2022-11-22T18:03:49.503Z,4.90
2022-11-22T18:08:56.608Z,6.65
2022-11-22T18:11:29.603Z,8.25
2022-11-22T18:14:04.926Z,5.30
2022-11-22T18:16:39.651Z,11.18
2022-11-22T18:19:12.316Z,6.25
2022-11-22T18:21:44.918Z,4.10
2022-11-22T18:24:19.147Z,2.95
2022-11-22T18:26:51.860Z,6.38
2022-11-22T18:29:41.619Z,9.75
2022-11-22T18:32:15.670Z,6.10
2022-11-22T18:34:49.664Z,9.98
2022-11-22T18:37:22.304Z,5.90
2022-11-22T18:39:55.300Z,8.32
2022-11-22T18:42:27.899Z,4.97
2022-11-22T18:45:00.616Z,10.93
2022-11-22T18:47:33.242Z,3.70
2022-11-22T18:50:12.160Z,3.03
2022-11-22T18:52:45.518Z,3.97
2022-11-22T18:55:18.723Z,8.35
2022-11-22T18:57:51.465Z,3.53
2022-11-22T19:00:24.083Z,2.90
2022-11-22T19:02:57.174Z,4.05
2022-11-22T19:05:29.874Z,4.32
2022-11-22T19:08:02.772Z,3.72
2022-11-22T19:10:35.900Z,4.57
2022-11-22T19:13:08.424Z,5.97
2022-11-22T19:15:41.202Z,4.72
2022-11-22T19:18:13.794Z,31.95
2022-11-22T19:20:55.253Z,16.52
2022-11-22T19:23:30.120Z,19.75
2022-11-22T19:26:05.959Z,8.35
2022-11-22T19:28:38.715Z,15.88
2022-11-22T19:31:14.230Z,7.18
2022-11-22T19:33:47.881Z,8.63
2022-11-22T19:36:32.308Z,6.45
2022-11-22T19:39:10.724Z,7.32
2022-11-22T19:41:45.377Z,6.38
2022-11-22T19:44:18.287Z,3.17
2022-11-22T19:46:57.031Z,3.38
2022-11-22T19:49:30.365Z,2.75
2022-11-22T19:52:04.854Z,2.28
2022-11-22T19:54:40.090Z,2.67
2022-11-22T19:57:15.834Z,1.17
2022-11-22T19:59:48.307Z,2.67
2022-11-22T20:02:20.919Z,4.32
2022-11-22T20:04:54.517Z,2.50
2022-11-22T20:07:30.419Z,4.38
2022-11-22T20:10:04.544Z,2.78
2022-11-22T20:12:38.114Z,2.90
2022-11-22T20:15:11.520Z,2.03
2022-11-22T20:17:44.797Z,3.40
2022-11-22T20:20:17.647Z,2.70
2022-11-22T20:22:50.195Z,2.15
2022-11-22T20:25:22.791Z,3.20
2022-11-22T20:27:55.601Z,3.33
2022-11-22T20:30:29.550Z,1.63
2022-11-22T20:33:03.547Z,2.00
2022-11-22T20:35:36.163Z,1.67
2022-11-22T20:38:08.638Z,1.42
2022-11-22T20:40:41.429Z,2.00
2022-11-22T20:43:14.383Z,5.68
2022-11-22T20:45:47.076Z,1.73
2022-11-22T20:48:19.678Z,2.40
2022-11-22T20:50:53.916Z,1.92
2022-11-22T20:53:26.899Z,3.17
2022-11-22T20:55:59.647Z,1.65
2022-11-22T20:58:32.853Z,5.18
2022-11-22T21:01:08.719Z,5.53
2022-11-22T21:03:41.995Z,10.52
2022-11-22T21:06:16.145Z,33.25
2022-11-22T21:08:49.152Z,7.45
2022-11-22T21:11:24.168Z,5.15
2022-11-22T21:13:58.599Z,7.07
2022-11-22T21:16:31.454Z,6.30
2022-11-22T21:19:06.156Z,4.88
2022-11-22T21:21:38.781Z,4.40
2022-11-22T21:24:14.948Z,6.22
2022-11-22T21:26:47.806Z,5.55
2022-11-22T21:29:20.535Z,4.88
2022-11-22T21:31:53.405Z,4.55
2022-11-22T21:34:26.199Z,4.93
2022-11-22T21:36:58.877Z,7.10
2022-11-22T21:39:31.947Z,7.75
2022-11-22T21:42:04.639Z,4.25
2022-11-22T21:44:37.168Z,3.90
2022-11-22T21:47:09.690Z,7.10
2022-11-22T21:49:42.219Z,6.45
2022-11-22T21:52:14.703Z,6.82
2022-11-22T21:54:47.307Z,6.47
2022-11-22T21:57:20.049Z,5.93
2022-11-22T21:59:52.832Z,5.43
2022-11-22T22:02:25.600Z,4.45
2022-11-22T22:04:58.122Z,5.15
2022-11-22T22:07:51.868Z,7.68
2022-11-22T22:10:26.763Z,4.90
2022-11-22T22:12:59.623Z,6.72
2022-11-22T22:15:32.245Z,4.85
2022-11-22T22:18:05.348Z,3.83
2022-11-22T22:20:37.926Z,3.05
2022-11-22T22:23:10.812Z,3.42
2022-11-22T22:25:43.418Z,4.97
2022-11-22T22:28:15.910Z,3.60
2022-11-22T22:30:49.074Z,2.50
2022-11-22T22:33:21.644Z,3.25
2022-11-22T22:35:54.447Z,3.60
2022-11-22T22:38:27.581Z,3.67
2022-11-22T22:41:02.892Z,3.85
2022-11-22T22:43:38.787Z,3.25
2022-11-22T22:46:14.188Z,4.35
2022-11-22T22:48:49.838Z,4.13
2022-11-22T22:51:30.640Z,3.42
2022-11-22T22:54:05.300Z,3.00
2022-11-22T22:56:37.927Z,3.92
2022-11-22T22:59:11.070Z,2.05
2022-11-22T23:01:43.797Z,2.50
2022-11-22T23:04:16.318Z,3.00
2022-11-22T23:06:48.863Z,2.22
2022-11-22T23:09:22.444Z,2.70
2022-11-22T23:12:10.556Z,4.07
2022-11-22T23:14:42.973Z,2.38
2022-11-22T23:17:15.494Z,3.03
2022-11-22T23:19:48.005Z,3.88
2022-11-22T23:22:25.697Z,2.30
2022-11-22T23:24:58.823Z,3.53
2022-11-22T23:27:31.348Z,4.20
2022-11-22T23:30:04.297Z,3.50
2022-11-22T23:32:36.955Z,2.47
2022-11-22T23:35:10.010Z,2.00
2022-11-22T23:37:42.599Z,2.00
2022-11-22T23:40:15.746Z,3.42
2022-11-22T23:42:48.291Z,2.25
2022-11-22T23:45:20.789Z,2.40
2022-11-22T23:47:54.066Z,2.83
2022-11-22T23:50:26.560Z,4.32
2022-11-22T23:52:59.085Z,3.00
2022-11-22T23:55:31.643Z,2.30
2022-11-22T23:58:04.424Z,1.83
